Hauptseite
METAR-TAF:

METAR-TAF

Flughäfen :

London Stansted Airport

London-Stansted, England

Breite: 51-53N, Länge: 000-14E, Höhe: 106 m

Beobachtung

Neuester Wetterbericht von vor 18 Minuten, um 06:50 UTC
Wind 4 kt aus West/Südwest
Temperatur 17°C
Luftfeuchtigkeit 72%
Luftdruck 1019 hPa
Sichtweite 10 km oder mehr

METAR: EGSS 180650Z AUTO 25004KT 9999 NCD 17/12 Q1019

Zeit: 08:08 (07:08 UTC)

Prognose

Neuester Wetterbericht von vor 2 Stunden und 4 Minuten, um 05:04 UTC
Gültige Prognose vom 18 um 06 UTC bis 19 um 12 UTC
Wind 6 kt aus West/Südwest
Sichtweite 10 km oder mehr
Leicht bewölkt in der Höhe von 4000 ft
Wahrscheinlichkeit 30%
vom 19 um 02 UTC bis 19 um 07 UTC
Sichtweite: 8000 m

TAF: EGSS 180504Z 1806/1912 25006KT 9999 FEW040 PROB30 1902/1907 8000

Wetterbeobachtungen und Prognosen von mehr als 4000 Flughäfen (METAR und TAF Bericht).

Die verfügbaren Stationen werden durch gelbe und rote Markierungen auf der Karte dargestellt.

Führen Sie die Maus auf sie, um den Namen der Station zu sehen.

Darauf klicken, um die Beobachtung von Wetterbeobachtungen und Prognosen zu sehen.

Um die Karte zu ändern : klicken Sie auf den grünen Tasten mit einem schwarzen Kreuz Zum Vergrößern, auf den grünen Button mit einem Gedankenstrich zu verkleinern, oder auf die grünen Pfeile für benachbarte Karten.


METAR-TAF: